Terminal Aerodrome Forecast
Issued by NWS Cleveland, OH

Home | Current Version | Previous Version | Graphics & Text | Print | Product List | Glossary On
Versions: 1 2 3 4 5 6 7 8 9 10 11 12 13 14 15 16 17 18 19
000
FTUS41 KCLE 271500 AAA
TAFMFD
TAF AMD
KMFD 271550Z 2716/2812 01006KT P6SM SCT015
      TEMPO 2716/2718 BKN015
     FM271900 01008KT P6SM SCT035
     FM280000 02004KT P6SM SCT250=

USA.gov is the U.S. government's official web portal to all federal, state and local government web resources and services.